Wetterstation 29328 Müden/Ö

Wetterdaten: aktuell Samstag, 19.01.2019 08:10
Datum Zeit Temp. A. Feuchte A. Luftdruck Regen Wind Richtung Richtung Windben
19.01.2019 08:10 -3,8 C 93 % 1019,6 hPa 0,0 l/m 0,0 km/h (0 Bft) W-SW 238 0,0 km/h (0 Bft)
19.01.2019 08:05 -3,8 C 93 % 1019,7 hPa 0,0 l/m 0,0 km/h (0 Bft) W-SW 238 0,0 km/h (0 Bft)
19.01.2019 08:00 -3,7 C 93 % 1019,7 hPa 0,0 l/m 0,0 km/h (0 Bft) W-SW 238 0,0 km/h (0 Bft)
19.01.2019 07:55 -3,7 C 93 % 1019,7 hPa 0,0 l/m 0,0 km/h (0 Bft) W-SW 238 0,0 km/h (0 Bft)
19.01.2019 07:50 -3,6 C 93 % 1019,6 hPa 0,0 l/m 0,0 km/h (0 Bft) W-SW 238 0,0 km/h (0 Bft)
19.01.2019 07:45 -3,6 C 93 % 1019,7 hPa 0,0 l/m 0,0 km/h (0 Bft) W-SW 238 0,0 km/h (0 Bft)
19.01.2019 07:40 -3,5 C 93 % 1019,6 hPa 0,0 l/m 0,0 km/h (0 Bft) W-SW 238 0,0 km/h (0 Bft)
19.01.2019 07:35 -3,4 C 92 % 1019,6 hPa 0,0 l/m 0,0 km/h (0 Bft) W-SW 238 0,0 km/h (0 Bft)
19.01.2019 07:30 -3,4 C 92 % 1019,6 hPa 0,0 l/m 0,0 km/h (0 Bft) W-SW 238 0,0 km/h (0 Bft)
19.01.2019 07:25 -3,3 C 93 % 1019,6 hPa 0,0 l/m 0,0 km/h (0 Bft) W-SW 238 0,0 km/h (0 Bft)
19.01.2019 07:20 -3,3 C 93 % 1019,6 hPa 0,0 l/m 0,0 km/h (0 Bft) W-SW 238 0,0 km/h (0 Bft)
19.01.2019 07:15 -3,3 C 93 % 1019,7 hPa 0,0 l/m 0,0 km/h (0 Bft) W-SW 238 0,0 km/h (0 Bft)
19.01.2019 07:10 -3,2 C 93 % 1019,6 hPa 0,0 l/m 0,0 km/h (0 Bft) W-SW 238 0,0 km/h (0 Bft)
19.01.2019 07:05 -3,2 C 92 % 1019,6 hPa 0,0 l/m 0,0 km/h (0 Bft) W-SW 238 0,0 km/h (0 Bft)
19.01.2019 07:00 -3,2 C 92 % 1019,6 hPa 0,0 l/m 0,0 km/h (0 Bft) W-SW 238 0,0 km/h (0 Bft)
19.01.2019 06:55 -3,2 C 92 % 1019,6 hPa 0,0 l/m 0,6 km/h (0 Bft) W-SW 238 1,6 km/h (1 Bft)
19.01.2019 06:50 -3,1 C 92 % 1019,6 hPa 0,0 l/m 1,6 km/h (1 Bft) W-SW 238 3,2 km/h (1 Bft)
19.01.2019 06:45 -3,1 C 92 % 1019,6 hPa 0,0 l/m 2,7 km/h (1 Bft) W-SW 238 3,2 km/h (1 Bft)
19.01.2019 06:40 -3,0 C 92 % 1019,7 hPa 0,0 l/m 2,4 km/h (1 Bft) W-SW 238 3,2 km/h (1 Bft)
19.01.2019 06:35 -2,9 C 92 % 1019,6 hPa 0,0 l/m 2,0 km/h (1 Bft) W-SW 238 3,2 km/h (1 Bft)
19.01.2019 06:30 -2,9 C 92 % 1019,6 hPa 0,0 l/m 2,6 km/h (1 Bft) W-SW 238 4,8 km/h (1 Bft)
19.01.2019 06:25 -2,8 C 92 % 1019,6 hPa 0,0 l/m 0,7 km/h (0 Bft) W-SW 238 3,2 km/h (1 Bft)
19.01.2019 06:20 -2,8 C 92 % 1019,6 hPa 0,0 l/m 0,0 km/h (0 Bft) W-SW 238 0,0 km/h (0 Bft)
19.01.2019 06:15 -2,7 C 92 % 1019,6 hPa 0,0 l/m 0,0 km/h (0 Bft) W-SW 238 1,6 km/h (1 Bft)
19.01.2019 06:10 -2,7 C 92 % 1019,6 hPa 0,0 l/m 0,0 km/h (0 Bft) W-SW 238 0,0 km/h (0 Bft)
19.01.2019 06:05 -2,6 C 92 % 1019,6 hPa 0,0 l/m 0,0 km/h (0 Bft) W-SW 238 0,0 km/h (0 Bft)
19.01.2019 06:00 -2,5 C 92 % 1019,5 hPa 0,0 l/m 0,0 km/h (0 Bft) W-SW 238 0,0 km/h (0 Bft)
19.01.2019 05:55 -2,4 C 92 % 1019,6 hPa 0,0 l/m 0,6 km/h (0 Bft) W-SW 238 1,6 km/h (1 Bft)
19.01.2019 05:50 -2,4 C 92 % 1019,6 hPa 0,0 l/m 1,1 km/h (1 Bft) W-SW 238 1,6 km/h (1 Bft)
19.01.2019 05:45 -2,3 C 92 % 1019,6 hPa 0,0 l/m 1,5 km/h (1 Bft) W-SW 238 3,2 km/h (1 Bft)
19.01.2019 05:40 -2,3 C 92 % 1019,6 hPa 0,0 l/m 0,0 km/h (0 Bft) W-SW 238 1,6 km/h (1 Bft)
19.01.2019 05:35 -2,2 C 92 % 1019,6 hPa 0,0 l/m 0,0 km/h (0 Bft) W-SW 238 0,0 km/h (0 Bft)
19.01.2019 05:30 -2,2 C 92 % 1019,6 hPa 0,0 l/m 0,0 km/h (0 Bft) W-SW 238 0,0 km/h (0 Bft)
19.01.2019 05:25 -2,2 C 92 % 1019,6 hPa 0,0 l/m 0,0 km/h (0 Bft) W-SW 238 0,0 km/h (0 Bft)
19.01.2019 05:20 -2,1 C 92 % 1019,7 hPa 0,0 l/m 0,0 km/h (0 Bft) W-SW 238 1,6 km/h (1 Bft)
19.01.2019 05:15 -2,1 C 92 % 1019,7 hPa 0,0 l/m 1,3 km/h (1 Bft) W-SW 238 4,8 km/h (1 Bft)
19.01.2019 05:10 -1,9 C 92 % 1019,7 hPa 0,0 l/m 0,4 km/h (0 Bft) W-SW 238 3,2 km/h (1 Bft)
19.01.2019 05:05 -1,9 C 92 % 1019,7 hPa 0,0 l/m 0,0 km/h (0 Bft) W-SW 238 0,0 km/h (0 Bft)
19.01.2019 05:00 -1,8 C 92 % 1019,7 hPa 0,0 l/m 0,0 km/h (0 Bft) W-SW 238 0,0 km/h (0 Bft)
19.01.2019 04:55 -1,7 C 92 % 1019,7 hPa 0,0 l/m 0,0 km/h (0 Bft) W-SW 238 0,0 km/h (0 Bft)
19.01.2019 04:50 -1,7 C 92 % 1019,8 hPa 0,0 l/m 0,0 km/h (0 Bft) W-SW 238 0,0 km/h (0 Bft)
19.01.2019 04:45 -1,6 C 92 % 1019,8 hPa 0,0 l/m 0,1 km/h (0 Bft) W-SW 238 1,6 km/h (1 Bft)
19.01.2019 04:40 -1,5 C 92 % 1019,7 hPa 0,0 l/m 1,7 km/h (1 Bft) W-SW 238 3,2 km/h (1 Bft)
19.01.2019 04:35 -1,4 C 92 % 1019,7 hPa 0,0 l/m 3,0 km/h (1 Bft) W-SW 238 4,8 km/h (1 Bft)
19.01.2019 04:30 -1,3 C 92 % 1019,8 hPa 0,0 l/m 1,4 km/h (1 Bft) W-SW 238 4,8 km/h (1 Bft)
19.01.2019 04:25 -1,2 C 92 % 1019,8 hPa 0,0 l/m 0,0 km/h (0 Bft) W-SW 238 0,0 km/h (0 Bft)
19.01.2019 04:20 -1,2 C 92 % 1019,8 hPa 0,0 l/m 0,0 km/h (0 Bft) W-SW 238 0,0 km/h (0 Bft)
19.01.2019 04:15 -1,1 C 92 % 1019,8 hPa 0,0 l/m 0,0 km/h (0 Bft) W-SW 238 0,0 km/h (0 Bft)
19.01.2019 04:10 -0,9 C 92 % 1019,8 hPa 0,0 l/m 0,6 km/h (0 Bft) W-SW 238 3,2 km/h (1 Bft)
19.01.2019 04:05 -0,8 C 92 % 1019,7 hPa 0,0 l/m 2,1 km/h (1 Bft) W-SW 238 3,2 km/h (1 Bft)
19.01.2019 04:00 -0,8 C 92 % 1019,8 hPa 0,0 l/m 1,6 km/h (1 Bft) W-SW 238 3,2 km/h (1 Bft)
19.01.2019 03:55 -0,7 C 92 % 1019,8 hPa 0,0 l/m 1,2 km/h (1 Bft) W-SW 238 3,2 km/h (1 Bft)
19.01.2019 03:50 -0,7 C 92 % 1019,8 hPa 0,0 l/m 0,1 km/h (0 Bft) W-SW 238 1,6 km/h (1 Bft)
19.01.2019 03:45 -0,6 C 92 % 1019,9 hPa 0,0 l/m 1,7 km/h (1 Bft) W-SW 238 3,2 km/h (1 Bft)
19.01.2019 03:40 -0,6 C 92 % 1019,8 hPa 0,0 l/m 1,6 km/h (1 Bft) W-SW 238 3,2 km/h (1 Bft)
19.01.2019 03:35 -0,6 C 92 % 1019,9 hPa 0,0 l/m 2,3 km/h (1 Bft) W-SW 238 3,2 km/h (1 Bft)
19.01.2019 03:30 -0,5 C 92 % 1019,9 hPa 0,0 l/m 1,9 km/h (1 Bft) W-SW 238 3,2 km/h (1 Bft)
19.01.2019 03:25 -0,5 C 92 % 1019,9 hPa 0,0 l/m 2,4 km/h (1 Bft) W-SW 238 4,8 km/h (1 Bft)
19.01.2019 03:20 -0,5 C 92 % 1019,9 hPa 0,0 l/m 2,5 km/h (1 Bft) W-SW 238 4,8 km/h (1 Bft)
19.01.2019 03:15 -0,4 C 92 % 1019,9 hPa 0,0 l/m 2,7 km/h (1 Bft) W-SW 238 4,8 km/h (1 Bft)
19.01.2019 03:10 -0,4 C 92 % 1019,9 hPa 0,0 l/m 2,5 km/h (1 Bft) W-SW 238 4,8 km/h (1 Bft)
_ Min-Zeit 08:05 00:55 06:00 - 04:15 - - 04:15
Minimum _ -3,8 C 91 % 1019,5 hPa - 0,0 km/h (0 Bft) - - 0,0 km/h (0 Bft)
_ Max-Zeit 00:00 00:00 00:00 00:00 02:00 - - 00:00
Maximum _ 0,3 C 93 % 1020,1 hPa 0,0 l/m 4,5 km/h
S-SW (1 Bft)
- - 6,4 km/h
W (2 Bft)
Durchschnitt _ -1,4 C 92 % 1019,8 hPa #0,0 l/m 1,4 km/h (1 Bft) W-SW - 2,9 km/h (1 Bft)

nach oben

Copyright 2006 - 2019 fr den gesamten Inhalt der Webseite